<?xml version='1.0' encoding='UTF-8'?>
<gpx xmlns="http://www.topografix.com/GPX/1/1" creator="www.balnam.be" version="1.1" xmlns:xsi="http://www.w3.org/2001/XMLSchema-instance" xsi:schemaLocation="http://www.topografix.com/GPX/1/1 http://www.topografix.com/GPX/1/1/gpx.xsd">
<trk>
<name>xvssb8</name>
<cmt>r</cmt>
<desc>Sibret Chemin n°8 </desc>
<link href="https://chemins.be/sibret/chemin/8"/><trkseg>
<trkpt lat="49.983566" lon="5.637910"><time>2026-05-03T20:26:45Z</time></trkpt>
<trkpt lat="49.984458" lon="5.638626"><time>2026-05-03T20:36:45Z</time></trkpt>
<trkpt lat="49.984663" lon="5.638584"><time>2026-05-03T20:46:45Z</time></trkpt>
</trkseg></trk>
<trk>
<name>xvssb8</name>
<cmt>v</cmt>
<desc>Sibret Chemin n°8 </desc>
<link href="https://chemins.be/sibret/chemin/8"/><trkseg>
<trkpt lat="49.984663" lon="5.638584"><time>2026-05-03T20:46:45Z</time></trkpt>
<trkpt lat="49.985833" lon="5.638161"><time>2026-05-03T20:56:45Z</time></trkpt>
<trkpt lat="49.987319" lon="5.639241"><time>2026-05-03T21:06:45Z</time></trkpt>
<trkpt lat="49.987452" lon="5.639399"><time>2026-05-03T21:16:45Z</time></trkpt>
<trkpt lat="49.987675" lon="5.639606"><time>2026-05-03T21:26:45Z</time></trkpt>
<trkpt lat="49.987814" lon="5.639743"><time>2026-05-03T21:36:45Z</time></trkpt>
<trkpt lat="49.988168" lon="5.640101"><time>2026-05-03T21:46:45Z</time></trkpt>
<trkpt lat="49.988446" lon="5.640299"><time>2026-05-03T21:56:45Z</time></trkpt>
<trkpt lat="49.988712" lon="5.640492"><time>2026-05-03T22:06:45Z</time></trkpt>
<trkpt lat="49.988901" lon="5.640626"><time>2026-05-03T22:16:45Z</time></trkpt>
<trkpt lat="49.989032" lon="5.640713"><time>2026-05-03T22:26:45Z</time></trkpt>
<trkpt lat="49.989177" lon="5.640810"><time>2026-05-03T22:36:45Z</time></trkpt>
<trkpt lat="49.989400" lon="5.640938"><time>2026-05-03T22:46:45Z</time></trkpt>
<trkpt lat="49.989653" lon="5.641068"><time>2026-05-03T22:56:45Z</time></trkpt>
<trkpt lat="49.990220" lon="5.641215"><time>2026-05-03T23:06:45Z</time></trkpt>
<trkpt lat="49.991931" lon="5.641887"><time>2026-05-03T23:16:45Z</time></trkpt>
<trkpt lat="49.993067" lon="5.644820"><time>2026-05-03T23:26:45Z</time></trkpt>
<trkpt lat="49.994377" lon="5.645957"><time>2026-05-03T23:36:45Z</time></trkpt>
<trkpt lat="49.995499" lon="5.648739"><time>2026-05-03T23:46:45Z</time></trkpt>
</trkseg></trk>
<trk>
<name>xvssb8</name>
<cmt>d</cmt>
<desc>Sibret Chemin n°8 </desc>
<link href="https://chemins.be/sibret/chemin/8"/><trkseg>
<trkpt lat="49.995499" lon="5.648739"><time>2026-05-03T23:46:45Z</time></trkpt>
<trkpt lat="49.996658" lon="5.650642"><time>2026-05-03T23:56:45Z</time></trkpt>
</trkseg></trk>
<trk>
<name>xvssb8</name>
<cmt>v</cmt>
<desc>Sibret Chemin n°8 </desc>
<link href="https://chemins.be/sibret/chemin/8"/><trkseg>
<trkpt lat="49.996658" lon="5.650642"><time>2026-05-03T23:56:45Z</time></trkpt>
<trkpt lat="49.998502" lon="5.652487"><time>2026-05-04T00:06:45Z</time></trkpt>
</trkseg></trk>
<trk>
<name>xvssb8</name>
<cmt>d</cmt>
<desc>Sibret Chemin n°8 </desc>
<link href="https://chemins.be/sibret/chemin/8"/><trkseg>
<trkpt lat="49.998502" lon="5.652487"><time>2026-05-04T00:06:45Z</time></trkpt>
<trkpt lat="49.999174" lon="5.654236"><time>2026-05-04T00:16:45Z</time></trkpt>
</trkseg>
</trk>
</gpx>